Daggett, CA (92327)

2:16 AM PDT on June 30, 2015 (GMT -0700)
Leona Road | | Change Station
CLOSE
Current Station
Personal Weather Station
Location: Newberry Springs, CA
Elevation: 1868 ft
Nearby Weather Stations

Elev 1868 ft 34.93 °N, 116.68 °W | Updated 3 minutes ago

Clear
Clear
89.2 °F
Feels Like 86 °F
N
5.1
Wind Variable Wind from SW

Today
High -- | Low -- °F
--% Chance of Precip.
Yesterday
High -- | Low -- °F
Precip. -- in
5:36 AM 8:04 PM
Waxing Gibbous, 96% visible
Pressure 29.73 in
Visibility 10.0 miles
Clouds Clear
Heat Index 86 °F
Dew Point 50 °F
Humidity 26%
Rainfall in
Snow Depth Not available.
UV 0 out of 12
Pollen 4.40 out of 12
Air Quality Not available.
Flu Activity Sporadic
METAR KBYS 300855Z AUTO 29011G15KT 10SM CLR 32/08 A2994 RMK AO2 SLP067 T03150079 54001 $

More Conditions Fewer Conditions

Pressure 29.73 in
Visibility 10.0 miles
Clouds Clear
Heat Index 86 °F
Dew Point 50 °F
Humidity 26%
Rainfall in
Snow Depth Not available.
UV 0 out of 12
Pollen 4.40 out of 12
Air Quality Not available.
Flu Activity Sporadic
METAR KBYS 300855Z AUTO 29011G15KT 10SM CLR 32/08 A2994 RMK AO2 SLP067 T03150079 54001 $

More Conditions Fewer Conditions

10-Day Weather Forecast

×

Almanac

Astronomy

Jun. 30, 2015 Rise Set
Actual Time
Civil Twilight
Nautical Twilight
Astronomical Twilight
Moon
Length of Visible Light
Length of Day
Tomorrow will be .
, % of the Moon is Illuminated

Today's Extremes

State Highs State Lows

Community

WunderPhotos

Upload Photos

1,833,983 photos uploaded!

WunderBlogs® & News

Nearby

Air Quality

  Air Quality AQ Index Pollutant
Not available.

Snow Depth

Station Depth Elevation

Earthquake Activity

City Distance Mag. Time & Date
Minimum magnitude displayed is 2.5.

Coastal Water Temperatures

Place Temperature

Stations

Nearby Weather Stations

Station Location Temp. Windchill Dew Point Humidity Wind Precip. Elev Updated Type